Randolph, NY (14772)

6:53 PM EST on December 03, 2016 (GMT -0500)
Randolph | | Change Station

Elev 1319 ft 42.17 °N, 78.95 °W | Updated 6 minutes ago

Overcast
Overcast
35.2 °F
Feels Like 35 °F
N
1.7
Wind Variable Wind from East

Today
High -- | Low -- °F
--% Chance of Precip.
Yesterday
High -- | Low -- °F
Precip. -- in
Pressure 30.20 in
Visibility 10.0 miles
Clouds Overcast 3500 ft
Windchill 35 °F
Dew Point 33 °F
Humidity 93%
Rainfall 0.25 in
Snow Depth Not available.
7:27 AM 4:44 PM
Waxing Crescent, 18% visible
METAR KJHW 032335Z AUTO 30012KT 10SM OVC035 02/M01 A3020 RMK AO1
Pressure 30.20 in
Visibility 10.0 miles
Clouds Overcast 3500 ft
Windchill 35 °F
Dew Point 33 °F
Humidity 93%
Rainfall 0.25 in
Snow Depth Not available.
7:27 AM 4:44 PM
Waxing Crescent, 18% visible
METAR KJHW 032335Z AUTO 30012KT 10SM OVC035 02/M01 A3020 RMK AO1

10-Day Weather Forecast

Almanac

Astronomy

Dec. 03, 2016 Rise Set
Actual Time
Civil Twilight
Nautical Twilight
Astronomical Twilight
Moon
Length of Visible Light
Length of Day
Tomorrow will be .
, % of the Moon is Illuminated

Today's Extremes

State Highs State Lows

Community

WunderPhotos

Upload Photos

1,955,536 photos uploaded!

WunderBlog® & News

Nearby

Air Quality

  Air Quality AQ Index Pollutant
Not available.

Snow Depth

Station Depth Elevation

Earthquake Activity

City Distance Mag. Time & Date
Minimum magnitude displayed is 2.5.

Coastal Water Temperatures

Place Temperature

Stations

Nearby Weather Stations

Station Location Temp. Windchill Dew Point Humidity Wind Precip. Elev Updated Type
                   

Watches & Warnings

There are currently no watches in effect.